WMT3DY LATI-LIRF
Flight info
| Callsign | WMT3DY |
|---|---|
| Flight time | 1h 9m |
| Altitude | 36000 |
| Route | DIRES DCT PAPIZ DCT KAPPO DCT ROBOT DCT LUXIL DCT TOPNO DCT EKTOL DCT IPKAM DCT TEA DCT SIPRO DCT LAT |
| Aircraft | A321/M-SDE1E2E3FGIJ1J4RWXY/LB1 |
Departure
| Time | 2026-05-05 20:49 |
|---|---|
| Airport | Tirana International Airport Mother Teresa (LATI) |
Arrival
| Time | 2026-05-05 21:59 |
|---|---|
| Airport | Rome–Fiumicino Leonardo da Vinci International Airport (LIRF) |
| Time | Latitude | Longitude | Altitude | Speed | Heading |
|---|---|---|---|---|---|
| 2026-05-05 20:09 | 41.41988 | 19.71514 | 119 ft | 0 kts | 265° |
| 2026-05-05 20:33 | 41.41988 | 19.71517 | 123 ft | 3 kts | 264° |
| 2026-05-05 20:33 | 41.41991 | 19.71544 | 119 ft | 4 kts | 271° |
| 2026-05-05 20:34 | 41.41984 | 19.71571 | 120 ft | 4 kts | 334° |
| 2026-05-05 20:34 | 41.41962 | 19.71579 | 120 ft | 1 kts | 354° |
| 2026-05-05 20:34 | 41.41957 | 19.71579 | 120 ft | 0 kts | 354° |
| 2026-05-05 20:41 | 41.41967 | 19.71578 | 120 ft | 2 kts | 354° |
| 2026-05-05 20:42 | 41.41990 | 19.71575 | 119 ft | 4 kts | 354° |
| 2026-05-05 20:42 | 41.42028 | 19.71570 | 120 ft | 6 kts | 354° |
| 2026-05-05 20:42 | 41.42079 | 19.71563 | 120 ft | 8 kts | 354° |
| 2026-05-05 20:42 | 41.42144 | 19.71554 | 121 ft | 10 kts | 354° |
| 2026-05-05 20:43 | 41.42222 | 19.71543 | 117 ft | 12 kts | 354° |
| 2026-05-05 20:43 | 41.42313 | 19.71531 | 118 ft | 14 kts | 354° |
| 2026-05-05 20:43 | 41.42414 | 19.71518 | 118 ft | 15 kts | 354° |
| 2026-05-05 20:43 | 41.42526 | 19.71503 | 116 ft | 17 kts | 354° |
| 2026-05-05 20:44 | 41.42630 | 19.71489 | 117 ft | 10 kts | 356° |
| 2026-05-05 20:44 | 41.42662 | 19.71535 | 118 ft | 7 kts | 73° |
| 2026-05-05 20:44 | 41.42669 | 19.71609 | 117 ft | 9 kts | 86° |
| 2026-05-05 20:44 | 41.42672 | 19.71650 | 118 ft | 2 kts | 85° |
| 2026-05-05 20:45 | 41.42676 | 19.71716 | 118 ft | 5 kts | 85° |
| 2026-05-05 20:45 | 41.42679 | 19.71754 | 118 ft | 0 kts | 83° |
| 2026-05-05 20:47 | 41.42680 | 19.71755 | 118 ft | 1 kts | 83° |
| 2026-05-05 20:47 | 41.42681 | 19.71767 | 117 ft | 2 kts | 83° |
| 2026-05-05 20:47 | 41.42683 | 19.71789 | 114 ft | 3 kts | 83° |
| 2026-05-05 20:47 | 41.42687 | 19.71834 | 117 ft | 7 kts | 84° |
| 2026-05-05 20:48 | 41.42678 | 19.71892 | 116 ft | 6 kts | 134° |
| 2026-05-05 20:48 | 41.42641 | 19.71900 | 117 ft | 0 kts | 174° |
| 2026-05-05 20:48 | 41.42640 | 19.71900 | 117 ft | 4 kts | 174° |
| 2026-05-05 20:48 | 41.42354 | 19.71937 | 116 ft | 79 kts | 174° |
| 2026-05-05 20:49 | 41.41584 | 19.72040 | 125 ft | 141 kts | 174° |
| 2026-05-05 20:49 | 41.40459 | 19.72181 | 366 ft | 169 kts | 175° |
| 2026-05-05 20:49 | 41.39328 | 19.72315 | 1184 ft | 160 kts | 174° |
| 2026-05-05 20:49 | 41.38205 | 19.72478 | 1724 ft | 169 kts | 174° |
| 2026-05-05 20:50 | 41.36963 | 19.72660 | 1980 ft | 191 kts | 175° |
| 2026-05-05 20:50 | 41.36055 | 19.72784 | 2122 ft | 205 kts | 175° |
| 2026-05-05 20:50 | 41.34007 | 19.73056 | 2358 ft | 239 kts | 175° |
| 2026-05-05 20:50 | 41.32295 | 19.73284 | 2864 ft | 252 kts | 175° |
| 2026-05-05 20:51 | 41.30526 | 19.73519 | 3614 ft | 258 kts | 175° |
| 2026-05-05 20:51 | 41.28729 | 19.73756 | 4370 ft | 261 kts | 175° |
| 2026-05-05 20:51 | 41.26904 | 19.73991 | 5142 ft | 265 kts | 176° |
| 2026-05-05 20:51 | 41.25091 | 19.73650 | 5854 ft | 267 kts | 206° |
| 2026-05-05 20:52 | 41.23709 | 19.72031 | 6573 ft | 270 kts | 236° |
| 2026-05-05 20:52 | 41.22824 | 19.69830 | 7315 ft | 272 kts | 246° |
| 2026-05-05 20:52 | 41.22128 | 19.67488 | 8065 ft | 273 kts | 249° |
| 2026-05-05 20:52 | 41.21467 | 19.65111 | 8804 ft | 275 kts | 249° |
| 2026-05-05 20:53 | 41.20777 | 19.62734 | 9559 ft | 277 kts | 248° |
| 2026-05-05 20:53 | 41.20046 | 19.60356 | 10279 ft | 280 kts | 248° |
| 2026-05-05 20:53 | 41.19260 | 19.57925 | 10511 ft | 301 kts | 247° |
| 2026-05-05 20:53 | 41.18376 | 19.55290 | 10646 ft | 323 kts | 246° |
| 2026-05-05 20:54 | 41.17423 | 19.52527 | 11102 ft | 333 kts | 246° |
| 2026-05-05 20:54 | 41.16441 | 19.49716 | 11684 ft | 338 kts | 246° |
| 2026-05-05 20:54 | 41.15444 | 19.46875 | 12322 ft | 342 kts | 246° |
| 2026-05-05 20:54 | 41.14436 | 19.44000 | 12961 ft | 345 kts | 246° |
| 2026-05-05 20:55 | 41.13419 | 19.41099 | 13627 ft | 348 kts | 247° |
| 2026-05-05 20:55 | 41.12394 | 19.38171 | 14219 ft | 352 kts | 247° |
| 2026-05-05 20:55 | 41.11364 | 19.35220 | 14791 ft | 355 kts | 247° |
| 2026-05-05 20:55 | 41.10324 | 19.32235 | 15377 ft | 358 kts | 247° |
| 2026-05-05 20:56 | 41.09274 | 19.29234 | 15955 ft | 361 kts | 247° |
| 2026-05-05 20:56 | 41.08209 | 19.26203 | 16529 ft | 364 kts | 247° |
| 2026-05-05 20:56 | 41.07134 | 19.23153 | 17127 ft | 367 kts | 247° |
| 2026-05-05 20:56 | 41.06411 | 19.21124 | 17499 ft | 369 kts | 245° |
| 2026-05-05 20:57 | 41.04460 | 19.17333 | 18239 ft | 377 kts | 230° |
| 2026-05-05 20:57 | 41.03286 | 19.15626 | 18575 ft | 379 kts | 230° |
| 2026-05-05 20:57 | 41.01501 | 19.13042 | 19074 ft | 382 kts | 230° |
| 2026-05-05 20:57 | 40.99704 | 19.10440 | 19597 ft | 383 kts | 230° |
| 2026-05-05 20:58 | 40.97905 | 19.07829 | 20159 ft | 384 kts | 230° |
| 2026-05-05 20:58 | 40.96101 | 19.05211 | 20696 ft | 386 kts | 230° |
| 2026-05-05 20:58 | 40.94287 | 19.02581 | 21255 ft | 387 kts | 230° |
| 2026-05-05 20:58 | 40.92467 | 18.99948 | 21782 ft | 389 kts | 231° |
| 2026-05-05 20:59 | 40.90650 | 18.97294 | 22295 ft | 390 kts | 233° |
| 2026-05-05 20:59 | 40.89099 | 18.94369 | 22790 ft | 387 kts | 243° |
| 2026-05-05 20:59 | 40.87976 | 18.91145 | 23279 ft | 386 kts | 251° |
| 2026-05-05 20:59 | 40.87023 | 18.87827 | 23752 ft | 387 kts | 251° |
| 2026-05-05 21:00 | 40.86059 | 18.84495 | 24140 ft | 389 kts | 251° |
| 2026-05-05 21:00 | 40.85085 | 18.81150 | 24504 ft | 391 kts | 251° |
| 2026-05-05 21:00 | 40.84100 | 18.77784 | 24852 ft | 394 kts | 251° |
| 2026-05-05 21:00 | 40.83104 | 18.74394 | 25173 ft | 398 kts | 251° |
| 2026-05-05 21:01 | 40.82098 | 18.70978 | 25490 ft | 401 kts | 251° |
| 2026-05-05 21:01 | 40.81086 | 18.67544 | 25835 ft | 403 kts | 251° |
| 2026-05-05 21:01 | 40.80067 | 18.64083 | 26180 ft | 406 kts | 252° |
| 2026-05-05 21:01 | 40.79044 | 18.60603 | 26511 ft | 408 kts | 252° |
| 2026-05-05 21:02 | 40.78014 | 18.57101 | 26842 ft | 410 kts | 252° |
| 2026-05-05 21:02 | 40.76977 | 18.53582 | 27177 ft | 413 kts | 252° |
| 2026-05-05 21:02 | 40.75929 | 18.50043 | 27512 ft | 415 kts | 252° |
| 2026-05-05 21:02 | 40.74878 | 18.46495 | 27831 ft | 417 kts | 252° |
| 2026-05-05 21:03 | 40.73817 | 18.42916 | 28148 ft | 420 kts | 252° |
| 2026-05-05 21:03 | 40.72751 | 18.39325 | 28457 ft | 422 kts | 252° |
| 2026-05-05 21:03 | 40.71677 | 18.35718 | 28766 ft | 424 kts | 252° |
| 2026-05-05 21:03 | 40.70597 | 18.32088 | 29047 ft | 426 kts | 252° |
| 2026-05-05 21:04 | 40.69527 | 18.28490 | 29336 ft | 429 kts | 252° |
| 2026-05-05 21:04 | 40.68436 | 18.24826 | 29637 ft | 431 kts | 252° |
| 2026-05-05 21:04 | 40.67338 | 18.21144 | 29939 ft | 433 kts | 252° |
| 2026-05-05 21:04 | 40.66231 | 18.17445 | 30226 ft | 435 kts | 252° |
| 2026-05-05 21:05 | 40.65118 | 18.13734 | 30495 ft | 437 kts | 253° |
| 2026-05-05 21:05 | 40.64002 | 18.10014 | 30826 ft | 436 kts | 253° |
| 2026-05-05 21:05 | 40.62892 | 18.06308 | 31223 ft | 434 kts | 254° |
| 2026-05-05 21:05 | 40.62101 | 18.02519 | 31609 ft | 426 kts | 264° |
| 2026-05-05 21:06 | 40.61852 | 17.98680 | 31991 ft | 419 kts | 274° |
| 2026-05-05 21:06 | 40.62118 | 17.94891 | 32382 ft | 413 kts | 283° |
| 2026-05-05 21:06 | 40.62777 | 17.91225 | 32768 ft | 410 kts | 286° |
| 2026-05-05 21:06 | 40.63463 | 17.87591 | 33165 ft | 408 kts | 286° |
| 2026-05-05 21:07 | 40.64141 | 17.83969 | 33562 ft | 406 kts | 286° |
| 2026-05-05 21:07 | 40.64809 | 17.80373 | 33950 ft | 404 kts | 286° |
| 2026-05-05 21:07 | 40.65476 | 17.76780 | 34308 ft | 402 kts | 286° |
| 2026-05-05 21:07 | 40.66136 | 17.73207 | 34599 ft | 401 kts | 285° |
| 2026-05-05 21:08 | 40.66795 | 17.69639 | 34862 ft | 401 kts | 285° |
| 2026-05-05 21:08 | 40.67451 | 17.66073 | 35121 ft | 401 kts | 285° |
| 2026-05-05 21:08 | 40.68107 | 17.62501 | 35383 ft | 401 kts | 285° |
| 2026-05-05 21:08 | 40.68754 | 17.58977 | 35639 ft | 401 kts | 285° |
| 2026-05-05 21:09 | 40.69420 | 17.55359 | 35902 ft | 401 kts | 285° |
| 2026-05-05 21:09 | 40.70069 | 17.51828 | 36044 ft | 402 kts | 285° |
| 2026-05-05 21:09 | 40.71378 | 17.44689 | 36072 ft | 400 kts | 285° |
| 2026-05-05 21:10 | 40.72701 | 17.37562 | 36071 ft | 400 kts | 285° |
| 2026-05-05 21:10 | 40.74025 | 17.30431 | 36070 ft | 401 kts | 285° |
| 2026-05-05 21:11 | 40.75336 | 17.23284 | 36077 ft | 401 kts | 285° |
| 2026-05-05 21:11 | 40.76645 | 17.16124 | 36086 ft | 402 kts | 285° |
| 2026-05-05 21:12 | 40.77959 | 17.08957 | 36094 ft | 402 kts | 285° |
| 2026-05-05 21:12 | 40.79269 | 17.01781 | 36087 ft | 403 kts | 284° |
| 2026-05-05 21:13 | 40.80568 | 16.94598 | 36091 ft | 403 kts | 284° |
| 2026-05-05 21:13 | 40.81858 | 16.87398 | 36090 ft | 403 kts | 284° |
| 2026-05-05 21:14 | 40.83142 | 16.80198 | 36087 ft | 403 kts | 284° |
| 2026-05-05 21:14 | 40.84408 | 16.72986 | 36086 ft | 403 kts | 284° |
| 2026-05-05 21:15 | 40.85669 | 16.65767 | 36080 ft | 403 kts | 284° |
| 2026-05-05 21:15 | 40.86930 | 16.58542 | 36078 ft | 404 kts | 284° |
| 2026-05-05 21:16 | 40.88191 | 16.51316 | 36079 ft | 404 kts | 284° |
| 2026-05-05 21:16 | 40.89447 | 16.44079 | 36080 ft | 404 kts | 283° |
| 2026-05-05 21:17 | 40.90701 | 16.36840 | 36079 ft | 404 kts | 283° |
| 2026-05-05 21:17 | 40.91949 | 16.29590 | 36084 ft | 404 kts | 283° |
| 2026-05-05 21:18 | 40.93187 | 16.22348 | 36086 ft | 405 kts | 283° |
| 2026-05-05 21:18 | 40.94425 | 16.15076 | 36091 ft | 405 kts | 283° |
| 2026-05-05 21:19 | 40.95662 | 16.07818 | 36094 ft | 405 kts | 283° |
| 2026-05-05 21:19 | 40.96899 | 16.00603 | 36097 ft | 405 kts | 283° |
| 2026-05-05 21:20 | 40.98136 | 15.93327 | 36093 ft | 405 kts | 282° |
| 2026-05-05 21:20 | 40.99366 | 15.86048 | 36096 ft | 406 kts | 282° |
| 2026-05-05 21:21 | 41.00596 | 15.78764 | 36099 ft | 406 kts | 282° |
| 2026-05-05 21:21 | 41.01822 | 15.71464 | 36101 ft | 406 kts | 282° |
| 2026-05-05 21:22 | 41.03038 | 15.64168 | 36111 ft | 406 kts | 282° |
| 2026-05-05 21:22 | 41.04252 | 15.56865 | 36110 ft | 406 kts | 282° |
| 2026-05-05 21:23 | 41.05463 | 15.49554 | 36113 ft | 406 kts | 282° |
| 2026-05-05 21:23 | 41.06667 | 15.42244 | 36113 ft | 406 kts | 281° |
| 2026-05-05 21:24 | 41.07862 | 15.34926 | 36111 ft | 406 kts | 281° |
| 2026-05-05 21:24 | 41.09059 | 15.27610 | 36106 ft | 406 kts | 281° |
| 2026-05-05 21:25 | 41.10257 | 15.20287 | 36109 ft | 407 kts | 281° |
| 2026-05-05 21:25 | 41.11449 | 15.12956 | 36110 ft | 407 kts | 281° |
| 2026-05-05 21:26 | 41.12639 | 15.05617 | 36117 ft | 407 kts | 281° |
| 2026-05-05 21:26 | 41.13828 | 14.98278 | 36116 ft | 407 kts | 281° |
| 2026-05-05 21:27 | 41.15008 | 14.90929 | 36124 ft | 407 kts | 281° |
| 2026-05-05 21:27 | 41.16182 | 14.83575 | 36120 ft | 407 kts | 281° |
| 2026-05-05 21:28 | 41.17354 | 14.76214 | 36118 ft | 408 kts | 280° |
| 2026-05-05 21:28 | 41.18523 | 14.68853 | 36115 ft | 408 kts | 280° |
| 2026-05-05 21:29 | 41.19690 | 14.61484 | 36120 ft | 408 kts | 280° |
| 2026-05-05 21:29 | 41.20849 | 14.54116 | 36120 ft | 408 kts | 280° |
| 2026-05-05 21:30 | 41.22002 | 14.46795 | 36121 ft | 408 kts | 280° |
| 2026-05-05 21:30 | 41.23156 | 14.39420 | 36075 ft | 408 kts | 280° |
| 2026-05-05 21:31 | 41.23729 | 14.35704 | 35222 ft | 415 kts | 280° |
| 2026-05-05 21:31 | 41.24308 | 14.31951 | 34713 ft | 412 kts | 280° |
| 2026-05-05 21:31 | 41.24886 | 14.28235 | 34223 ft | 410 kts | 280° |
| 2026-05-05 21:31 | 41.25462 | 14.24541 | 33737 ft | 406 kts | 280° |
| 2026-05-05 21:32 | 41.26029 | 14.20890 | 33297 ft | 402 kts | 280° |
| 2026-05-05 21:32 | 41.26585 | 14.17277 | 32833 ft | 397 kts | 280° |
| 2026-05-05 21:32 | 41.27134 | 14.13693 | 32389 ft | 393 kts | 280° |
| 2026-05-05 21:32 | 41.27675 | 14.10156 | 31949 ft | 388 kts | 280° |
| 2026-05-05 21:33 | 41.28209 | 14.06658 | 31514 ft | 384 kts | 280° |
| 2026-05-05 21:33 | 41.28737 | 14.03199 | 31110 ft | 379 kts | 280° |
| 2026-05-05 21:33 | 41.29272 | 13.99809 | 30746 ft | 373 kts | 283° |
| 2026-05-05 21:33 | 41.30140 | 13.96563 | 30280 ft | 373 kts | 293° |
| 2026-05-05 21:34 | 41.31452 | 13.93592 | 29767 ft | 373 kts | 301° |
| 2026-05-05 21:34 | 41.32928 | 13.90778 | 29316 ft | 370 kts | 301° |
| 2026-05-05 21:34 | 41.34386 | 13.87972 | 28852 ft | 366 kts | 301° |
| 2026-05-05 21:34 | 41.35821 | 13.85192 | 28433 ft | 363 kts | 301° |
| 2026-05-05 21:35 | 41.37243 | 13.82423 | 27974 ft | 361 kts | 300° |
| 2026-05-05 21:35 | 41.38655 | 13.79667 | 27549 ft | 359 kts | 300° |
| 2026-05-05 21:35 | 41.40054 | 13.76927 | 27128 ft | 357 kts | 300° |
| 2026-05-05 21:35 | 41.41468 | 13.74244 | 26946 ft | 349 kts | 302° |
| 2026-05-05 21:36 | 41.42886 | 13.71688 | 26831 ft | 339 kts | 303° |
| 2026-05-05 21:36 | 41.44337 | 13.69127 | 26586 ft | 356 kts | 303° |
| 2026-05-05 21:36 | 41.45857 | 13.66452 | 26338 ft | 366 kts | 303° |
| 2026-05-05 21:36 | 41.47402 | 13.63734 | 26088 ft | 368 kts | 303° |
| 2026-05-05 21:37 | 41.48948 | 13.61010 | 25846 ft | 368 kts | 303° |
| 2026-05-05 21:37 | 41.50485 | 13.58279 | 25605 ft | 368 kts | 303° |
| 2026-05-05 21:37 | 41.52016 | 13.55546 | 25365 ft | 368 kts | 303° |
| 2026-05-05 21:37 | 41.53525 | 13.52848 | 25130 ft | 367 kts | 303° |
| 2026-05-05 21:38 | 41.55072 | 13.50080 | 24888 ft | 367 kts | 303° |
| 2026-05-05 21:38 | 41.56576 | 13.47381 | 24666 ft | 372 kts | 302° |
| 2026-05-05 21:38 | 41.58142 | 13.44559 | 24436 ft | 383 kts | 302° |
| 2026-05-05 21:38 | 41.59738 | 13.41687 | 24153 ft | 386 kts | 303° |
| 2026-05-05 21:39 | 41.61337 | 13.38815 | 23731 ft | 385 kts | 303° |
| 2026-05-05 21:39 | 41.62931 | 13.35959 | 23266 ft | 383 kts | 303° |
| 2026-05-05 21:39 | 41.64525 | 13.33099 | 22818 ft | 384 kts | 303° |
| 2026-05-05 21:39 | 41.66114 | 13.30241 | 22387 ft | 382 kts | 303° |
| 2026-05-05 21:40 | 41.67691 | 13.27398 | 21945 ft | 379 kts | 303° |
| 2026-05-05 21:40 | 41.69256 | 13.24565 | 21497 ft | 377 kts | 303° |
| 2026-05-05 21:40 | 41.70808 | 13.21754 | 21051 ft | 375 kts | 303° |
| 2026-05-05 21:40 | 41.72351 | 13.18961 | 20608 ft | 372 kts | 303° |
| 2026-05-05 21:41 | 41.73884 | 13.16182 | 20162 ft | 370 kts | 303° |
| 2026-05-05 21:41 | 41.75404 | 13.13424 | 19716 ft | 367 kts | 303° |
| 2026-05-05 21:41 | 41.76917 | 13.10679 | 19282 ft | 365 kts | 303° |
| 2026-05-05 21:41 | 41.78416 | 13.07950 | 18841 ft | 363 kts | 303° |
| 2026-05-05 21:42 | 41.79908 | 13.05234 | 18398 ft | 360 kts | 303° |
| 2026-05-05 21:42 | 41.81390 | 13.02540 | 17925 ft | 358 kts | 303° |
| 2026-05-05 21:42 | 41.82863 | 12.99862 | 17491 ft | 355 kts | 303° |
| 2026-05-05 21:42 | 41.84327 | 12.97207 | 17063 ft | 353 kts | 303° |
| 2026-05-05 21:43 | 41.85777 | 12.94571 | 16637 ft | 350 kts | 303° |
| 2026-05-05 21:43 | 41.87215 | 12.91947 | 16208 ft | 348 kts | 303° |
| 2026-05-05 21:43 | 41.88644 | 12.89338 | 15789 ft | 345 kts | 303° |
| 2026-05-05 21:43 | 41.90038 | 12.86781 | 15372 ft | 343 kts | 303° |
| 2026-05-05 21:44 | 41.91441 | 12.84208 | 14955 ft | 340 kts | 303° |
| 2026-05-05 21:44 | 41.92830 | 12.81651 | 14542 ft | 338 kts | 303° |
| 2026-05-05 21:44 | 41.94208 | 12.79112 | 14128 ft | 335 kts | 303° |
| 2026-05-05 21:44 | 41.95577 | 12.76592 | 13711 ft | 333 kts | 303° |
| 2026-05-05 21:45 | 41.96934 | 12.74098 | 13283 ft | 329 kts | 303° |
| 2026-05-05 21:45 | 41.98274 | 12.71636 | 12888 ft | 324 kts | 303° |
| 2026-05-05 21:45 | 41.99593 | 12.69211 | 12497 ft | 320 kts | 303° |
| 2026-05-05 21:45 | 42.00895 | 12.66815 | 12202 ft | 311 kts | 303° |
| 2026-05-05 21:46 | 42.02131 | 12.64549 | 11873 ft | 294 kts | 303° |
| 2026-05-05 21:46 | 42.03333 | 12.62338 | 11454 ft | 294 kts | 303° |
| 2026-05-05 21:46 | 42.04147 | 12.60832 | 11198 ft | 293 kts | 303° |
| 2026-05-05 21:46 | 42.05339 | 12.58623 | 10826 ft | 293 kts | 303° |
| 2026-05-05 21:47 | 42.06525 | 12.56424 | 10433 ft | 288 kts | 303° |
| 2026-05-05 21:47 | 42.07694 | 12.54260 | 10199 ft | 285 kts | 303° |
| 2026-05-05 21:47 | 42.08867 | 12.52090 | 10100 ft | 287 kts | 303° |
| 2026-05-05 21:47 | 42.10045 | 12.49911 | 9649 ft | 290 kts | 303° |
| 2026-05-05 21:48 | 42.11226 | 12.47723 | 9152 ft | 285 kts | 303° |
| 2026-05-05 21:48 | 42.12394 | 12.45560 | 8588 ft | 283 kts | 303° |
| 2026-05-05 21:48 | 42.13513 | 12.43491 | 8463 ft | 265 kts | 303° |
| 2026-05-05 21:48 | 42.14566 | 12.41546 | 8182 ft | 251 kts | 302° |
| 2026-05-05 21:49 | 42.15582 | 12.39660 | 7649 ft | 247 kts | 302° |
| 2026-05-05 21:49 | 42.16586 | 12.37796 | 7146 ft | 242 kts | 302° |
| 2026-05-05 21:49 | 42.17499 | 12.35939 | 7110 ft | 242 kts | 292° |
| 2026-05-05 21:49 | 42.17963 | 12.33790 | 6967 ft | 238 kts | 272° |
| 2026-05-05 21:50 | 42.17885 | 12.31587 | 6628 ft | 234 kts | 255° |
| 2026-05-05 21:50 | 42.17402 | 12.29486 | 6251 ft | 231 kts | 249° |
| 2026-05-05 21:50 | 42.16913 | 12.27432 | 5899 ft | 229 kts | 249° |
| 2026-05-05 21:50 | 42.16430 | 12.25386 | 5574 ft | 228 kts | 249° |
| 2026-05-05 21:51 | 42.15951 | 12.23354 | 5255 ft | 227 kts | 249° |
| 2026-05-05 21:51 | 42.15426 | 12.21385 | 4938 ft | 224 kts | 239° |
| 2026-05-05 21:51 | 42.14484 | 12.19754 | 4626 ft | 220 kts | 219° |
| 2026-05-05 21:51 | 42.13178 | 12.18715 | 4321 ft | 219 kts | 199° |
| 2026-05-05 21:52 | 42.10231 | 12.17794 | 3719 ft | 216 kts | 192° |
| 2026-05-05 21:52 | 42.08776 | 12.17359 | 3426 ft | 213 kts | 193° |
| 2026-05-05 21:52 | 42.07319 | 12.17000 | 3128 ft | 218 kts | 184° |
| 2026-05-05 21:53 | 42.05807 | 12.17232 | 3023 ft | 215 kts | 165° |
| 2026-05-05 21:53 | 42.04424 | 12.17819 | 3029 ft | 203 kts | 165° |
| 2026-05-05 21:53 | 42.03133 | 12.18361 | 3041 ft | 182 kts | 164° |
| 2026-05-05 21:53 | 42.02000 | 12.18838 | 3010 ft | 161 kts | 164° |
| 2026-05-05 21:54 | 42.00961 | 12.19275 | 3010 ft | 153 kts | 164° |
| 2026-05-05 21:54 | 41.99954 | 12.19698 | 3011 ft | 151 kts | 164° |
| 2026-05-05 21:54 | 41.98953 | 12.20119 | 2920 ft | 150 kts | 164° |
| 2026-05-05 21:54 | 41.97967 | 12.20534 | 2771 ft | 147 kts | 164° |
| 2026-05-05 21:55 | 41.96994 | 12.20943 | 2583 ft | 146 kts | 164° |
| 2026-05-05 21:55 | 41.96031 | 12.21348 | 2391 ft | 145 kts | 164° |
| 2026-05-05 21:55 | 41.95066 | 12.21754 | 2191 ft | 145 kts | 165° |
| 2026-05-05 21:55 | 41.94103 | 12.22159 | 2004 ft | 145 kts | 164° |
| 2026-05-05 21:56 | 41.93146 | 12.22561 | 1808 ft | 144 kts | 164° |
| 2026-05-05 21:56 | 41.92195 | 12.22960 | 1615 ft | 143 kts | 163° |
| 2026-05-05 21:56 | 41.91248 | 12.23358 | 1439 ft | 143 kts | 163° |
| 2026-05-05 21:56 | 41.90301 | 12.23756 | 1230 ft | 142 kts | 162° |
| 2026-05-05 21:57 | 41.89358 | 12.24152 | 1031 ft | 143 kts | 162° |
| 2026-05-05 21:57 | 41.88409 | 12.24550 | 814 ft | 144 kts | 160° |
| 2026-05-05 21:57 | 41.87460 | 12.24965 | 569 ft | 142 kts | 159° |
| 2026-05-05 21:57 | 41.86518 | 12.25349 | 398 ft | 143 kts | 162° |
| 2026-05-05 21:58 | 41.85561 | 12.25746 | 258 ft | 145 kts | 161° |
| 2026-05-05 21:58 | 41.84601 | 12.26149 | 70 ft | 144 kts | 161° |
| 2026-05-05 21:58 | 41.83697 | 12.26530 | 16 ft | 119 kts | 162° |
| 2026-05-05 21:58 | 41.83070 | 12.26789 | 12 ft | 70 kts | 163° |
| 2026-05-05 21:59 | 41.82722 | 12.26935 | 14 ft | 47 kts | 162° |
| 2026-05-05 21:59 | 41.82428 | 12.27059 | 10 ft | 43 kts | 163° |
| 2026-05-05 21:59 | 41.82155 | 12.27138 | 10 ft | 37 kts | 177° |
| 2026-05-05 21:59 | 41.81938 | 12.27102 | 11 ft | 28 kts | 191° |
| 2026-05-05 22:00 | 41.81780 | 12.27056 | 11 ft | 20 kts | 192° |
| 2026-05-05 22:00 | 41.81669 | 12.27049 | 12 ft | 13 kts | 170° |
| 2026-05-05 22:00 | 41.81606 | 12.27078 | 13 ft | 8 kts | 160° |
| 2026-05-05 22:00 | 41.81545 | 12.27104 | 12 ft | 12 kts | 162° |
| 2026-05-05 22:01 | 41.81437 | 12.27151 | 12 ft | 20 kts | 163° |
| 2026-05-05 22:01 | 41.81276 | 12.27216 | 12 ft | 28 kts | 162° |
| 2026-05-05 22:01 | 41.81099 | 12.27291 | 12 ft | 26 kts | 162° |
| 2026-05-05 22:01 | 41.80925 | 12.27351 | 12 ft | 26 kts | 179° |
| 2026-05-05 22:02 | 41.80742 | 12.27311 | 13 ft | 27 kts | 191° |
| 2026-05-05 22:02 | 41.80630 | 12.27131 | 15 ft | 27 kts | 250° |
| 2026-05-05 22:02 | 41.80564 | 12.26892 | 13 ft | 28 kts | 250° |
| 2026-05-05 22:02 | 41.80498 | 12.26651 | 16 ft | 27 kts | 249° |
| 2026-05-05 22:03 | 41.80437 | 12.26429 | 15 ft | 15 kts | 250° |
| 2026-05-05 22:03 | 41.80359 | 12.26367 | 14 ft | 16 kts | 170° |
| 2026-05-05 22:03 | 41.80244 | 12.26409 | 14 ft | 18 kts | 180° |
| 2026-05-05 22:03 | 41.80126 | 12.26350 | 14 ft | 19 kts | 205° |
| 2026-05-05 22:04 | 41.80004 | 12.26275 | 14 ft | 20 kts | 204° |
| 2026-05-05 22:04 | 41.79890 | 12.26205 | 14 ft | 21 kts | 204° |
| 2026-05-05 22:04 | 41.79773 | 12.26126 | 15 ft | 16 kts | 216° |
| 2026-05-05 22:04 | 41.79700 | 12.26072 | 14 ft | 13 kts | 205° |
| 2026-05-05 22:05 | 41.79619 | 12.26021 | 14 ft | 7 kts | 206° |
| 2026-05-05 22:05 | 41.79610 | 12.26000 | 16 ft | 3 kts | 259° |
| 2026-05-05 22:05 | 41.79617 | 12.25967 | 14 ft | 4 kts | 293° |
| 2026-05-05 22:05 | 41.79626 | 12.25942 | 15 ft | 0 kts | 295° |